CheckWX is a tool to help pilots better visualize weather data.  It is not intended as a substitute for an official pre-flight weather briefing.

06:55:17 UTC

VTSH TAF
Songkhla Airport
Thailand
TAF VTSH 170500Z 1706/1806 21008KT 9999 SCT020 SCT100 PROB40 TEMPO 1707/1713 21010G20KT 5000 TSRA FEW016CB SCT018 BKN100

Jun-17@
06:00 UTC

Jun-17 @ 06:00 UTC

Jun-18@
06:00 UTC

Jun-18 @ 06:00 UTC

TAF VTSH 170500Z 1706/1806 21008KT 9999 SCT020 SCT100
Wind
  • 210° at 8 KTS
Cloud Levels
  • Scattered at 2,000' AGL
  • Scattered at 10,000' AGL

Jun-17@
07:00 UTC

Jun-17 @ 07:00 UTC

Jun-17@
13:00 UTC

Jun-17 @ 13:00 UTC

PROB40 TEMPO 1707/1713 21010G20KT 5000 TSRA FEW016CB SCT018 BKN100

Temporary - 40% Likelihood

Temporary - 40% Likelihood during this time.

Wind
  • 210° at 10 KTS
  • {Gusting to 20 KTS
Conditions
Thunderstorm, Rain
Cloud Levels
  • Few at 1,600' AGL
  • Scattered at 1,800' AGL
  • Broken at 10,000' AGL